This is the latest recevied weather packets stored in our database for station/object DM1MT. If no packets are shown the sender has not sent any weather packets the latest 10 day(s).
| Time | Temp. | Humidity | Pressure | Rain* | Wind** | Luminosity | Snow |
|---|---|---|---|---|---|---|---|
| 1777615102 | 9.44° C | 51% | 1019.1 hPa | 0 mm | - | 68 W/m² | - |
| 1777614518 | 7.78° C | 54% | 1019 hPa | 0 mm | - | 58 W/m² | - |
| 1777609698 | 6.67° C | 71% | 1018.7 hPa | 0 mm | - | 10 W/m² | - |
| 1777608558 | 6.11° C | 67% | 1018.8 hPa | 0 mm | - | 2 W/m² | - |
| 1777607425 | 7.22° C | 71% | 1018.8 hPa | 0 mm | - | 0 W/m² | - |
| 1777600717 | 9.44° C | 57% | 1019 hPa | 0 mm | - | 0 W/m² | - |
| 1777588844 | 11.67° C | 48% | 1018.8 hPa | 0 mm | - | 0 W/m² | - |
| 1777586297 | 11.67° C | 45% | 1018.6 hPa | 0 mm | - | 0 W/m² | - |
| 1777585721 | 12.22° C | 44% | 1018.3 hPa | 0 mm | - | 0 W/m² | - |
| 1777581537 | 13.33° C | 36% | 1018 hPa | 0 mm | - | 0 W/m² | - |
| 1777580957 | 13.33° C | 36% | 1018 hPa | 0 mm | - | 0 W/m² | - |
| 1777577332 | 14.44° C | 35% | 1017.7 hPa | 0 mm | - | 0 W/m² | - |
| 1777575504 | 15.56° C | 33% | 1017.5 hPa | 0 mm | - | 0 W/m² | - |
| 1777574897 | 16.11° C | 32% | 1017.4 hPa | 0 mm | - | 2 W/m² | - |
| 1777574337 | 16.67° C | 32% | 1017.5 hPa | 0 mm | - | 6 W/m² | - |
| 1777561717 | 18.89° C | 22% | 1017.4 hPa | 0 mm | - | 318 W/m² | - |
| 1777561136 | 18.89° C | 23% | 1017.3 hPa | 0 mm | - | 322 W/m² | - |
| 1777555704 | 17.78° C | 22% | 1018.1 hPa | 0 mm | - | 346 W/m² | - |
| 1777553884 | 17.22° C | 22% | 1018.6 hPa | 0 mm | - | 351 W/m² | - |
| 1777549136 | 15.56° C | 24% | 1019.3 hPa | 0 mm | - | 341 W/m² | - |
| 1777548496 | 15.56° C | 24% | 1019.4 hPa | 0 mm | - | 337 W/m² | - |
| 1777546784 | 15° C | 24% | 1019.6 hPa | 0 mm | - | 68 W/m² | - |
| 1777542576 | 13.33° C | 28% | 1020.3 hPa | 0 mm | - | 302 W/m² | - |
| 1777535323 | 11.11° C | 34% | 1020.8 hPa | 0 mm | - | 173 W/m² | - |
| 1777531783 | 9.44° C | 38% | 1020.6 hPa | 0 mm | - | 108 W/m² | - |
* Rain latest hour (hover to see other rain measurements)
** Current wind speed in m/s (hover to see current wind gust speed)